Time;durP1;ratioP1;P1;durP2;ratioP2;P2;SDS_P1;SDS_P2;PMS_P1;PMS_P2;Temp;Humidity;BMP_temperature;BMP_pressure;BME280_temperature;BME280_humidity;BME280_pressure;Samples;Min_cycle;Max_cycle;Signal;HPM_P1;HPM_P2
2023/02/03 00:01:37;;;;;;;;;;;;;;;-2.15;82.75;101722.65;107349;1255;61227;-81
2023/02/03 00:04:03;;;;;;;;;;;;;;;-2.16;82.72;101721.45;108065;1256;61228;-81
2023/02/03 00:06:30;;;;;;;;;;;;;;;-2.18;82.87;101721.69;108970;1254;59105;-82
2023/02/03 00:08:58;;;;;;;;;;;;;;;-2.16;83.08;101723.52;108294;1256;59243;-81
2023/02/03 00:11:24;;;;;;;;;;;;;;;-2.16;83.07;101725.30;108789;1254;65561;-81
2023/02/03 00:13:50;;;;;;;;;;;;;;;-2.15;83.10;101722.63;108239;1256;125674;-82
2023/02/03 00:16:16;;;;;;;;;;;;;;;-2.13;83.09;101722.23;107911;1254;61385;-81
2023/02/03 00:18:43;;;;;;;;;;;;;;;-2.13;83.23;101720.67;107750;1254;125087;-82
2023/02/03 00:21:09;;;;;;;;;;;;;;;-2.14;83.12;101716.64;108361;1255;59479;-82
2023/02/03 00:23:36;;;;;;;;;;;;;;;-2.17;83.03;101712.44;107417;1254;59278;-82
2023/02/03 00:26:10;;;;;;;;;;;;;;;-2.21;83.05;101709.55;107446;1259;124664;-82
2023/02/03 00:28:37;;;;;;;;;;;;;;;-2.22;83.00;101710.48;107605;1254;59836;-82
2023/02/03 00:31:03;;;;;;;;;;;;;;;-2.23;83.22;101706.95;107520;1254;124738;-82
2023/02/03 00:33:29;;;;;;;;;;;;;;;-2.24;83.30;101704.27;107548;1257;60994;-82
2023/02/03 00:35:56;;;;;;;;;;;;;;;-2.24;83.18;101702.85;107385;1255;125508;-82
2023/02/03 00:38:25;;;;;;;;;;;;;;;-2.25;83.25;101699.00;107486;1254;61384;-82
2023/02/03 00:40:52;;;;;;;;;;;;;;;-2.25;83.35;101694.72;107828;1254;61833;-83
2023/02/03 00:43:20;;;;;;;;;;;;;;;-2.24;83.46;101689.98;107459;1255;124786;-82
2023/02/03 00:45:46;;;;;;;;;;;;;;;-2.23;83.44;101686.13;107440;1254;73322;-82
2023/02/03 00:48:13;;;;;;;;;;;;;;;-2.23;83.43;101678.52;107281;1254;125032;-82
2023/02/03 00:50:40;;;;;;;;;;;;;;;-2.23;83.48;101670.23;107624;1256;61362;-82
2023/02/03 00:53:06;;;;;;;;;;;;;;;-2.23;83.51;101668.74;107619;1256;61198;-82
2023/02/03 00:55:32;;;;;;;;;;;;;;;-2.23;83.45;101662.69;107218;1260;125158;-82
2023/02/03 00:58:00;;;;;;;;;;;;;;;-2.26;83.39;101656.11;107352;1254;61362;-82
2023/02/03 01:00:26;;;;;;;;;;;;;;;-2.28;83.37;101655.40;107222;1254;125467;-82
2023/02/03 01:02:53;;;;;;;;;;;;;;;-2.29;83.40;101656.54;107554;1256;71056;-82
2023/02/03 01:05:19;;;;;;;;;;;;;;;-2.30;83.54;101655.05;107576;1256;61240;-82
2023/02/03 01:07:45;;;;;;;;;;;;;;;-2.31;83.43;101654.58;107426;1257;125574;-82
2023/02/03 01:10:13;;;;;;;;;;;;;;;-2.32;83.40;101649.38;107623;1260;61222;-82
2023/02/03 01:12:39;;;;;;;;;;;;;;;-2.31;83.61;101646.66;107910;1258;124637;-82
2023/02/03 01:15:10;;;;;;;;;;;;;;;-2.30;83.61;101640.58;107629;1259;59581;-82
2023/02/03 01:17:37;;;;;;;;;;;;;;;-2.29;83.78;101632.93;107327;1256;61388;-82
2023/02/03 01:20:04;;;;;;;;;;;;;;;-2.26;83.81;101623.59;107238;1254;124805;-82
2023/02/03 01:22:30;;;;;;;;;;;;;;;-2.25;83.78;101618.52;107182;1254;61355;-82
2023/02/03 01:24:56;;;;;;;;;;;;;;;-2.23;83.74;101620.64;107087;1256;124869;-82
2023/02/03 01:27:23;;;;;;;;;;;;;;;-2.21;83.89;101620.48;107347;1254;61336;-82
2023/02/03 01:29:50;;;;;;;;;;;;;;;-2.18;83.89;101620.55;107119;1254;124833;-82
2023/02/03 01:32:17;;;;;;;;;;;;;;;-2.17;83.85;101618.79;107307;1257;61138;-81
2023/02/03 01:34:46;;;;;;;;;;;;;;;-2.14;83.89;101616.61;107891;1256;61166;-81
2023/02/03 01:37:15;;;;;;;;;;;;;;;-2.11;83.86;101615.80;107460;1254;125081;-81
2023/02/03 01:39:42;;;;;;;;;;;;;;;-2.09;83.91;101615.15;107623;1254;72560;-82
2023/02/03 01:42:13;;;;;;;;;;;;;;;-2.05;83.84;101612.36;107248;1259;124827;-82
2023/02/03 01:44:40;;;;;;;;;;;;;;;-2.04;83.95;101605.60;107260;1256;61083;-82
2023/02/03 01:47:17;;;;;;;;;;;;;;;-1.99;84.15;101606.73;107172;1256;72678;-82
2023/02/03 01:49:45;;;;;;;;;;;;;;;-1.94;84.01;101605.75;107179;1254;124937;-82
2023/02/03 01:52:12;;;;;;;;;;;;;;;-1.91;84.07;101614.13;107462;1256;71344;-82
2023/02/03 01:54:39;;;;;;;;;;;;;;;-1.88;84.00;101611.02;107242;1254;125553;-82
2023/02/03 01:57:06;;;;;;;;;;;;;;;-1.84;83.99;101604.66;107325;1255;60116;-82
2023/02/03 01:59:33;;;;;;;;;;;;;;;-1.83;83.99;101603.35;107293;1260;73379;-82
2023/02/03 02:02:03;;;;;;;;;;;;;;;-1.78;83.91;101603.92;107389;1257;124605;-82
2023/02/03 02:04:33;;;;;;;;;;;;;;;-1.76;83.92;101600.66;107253;1258;71855;-82
2023/02/03 02:07:00;;;;;;;;;;;;;;;-1.73;83.96;101591.45;107447;1257;124736;-81
2023/02/03 02:09:26;;;;;;;;;;;;;;;-1.70;83.97;101586.77;107380;1254;61180;-82
2023/02/03 02:12:25;;;;;;;;;;;;;;;-1.67;83.87;101579.39;107329;1257;125185;-82
2023/02/03 02:15:23;;;;;;;;;;;;;;;-1.66;83.85;101568.16;107550;1256;65488;-82
2023/02/03 02:18:08;;;;;;;;;;;;;;;-1.64;83.77;101567.36;107459;1254;125666;-81
2023/02/03 02:20:53;;;;;;;;;;;;;;;-1.60;83.84;101557.65;107509;1255;61193;-81
2023/02/03 02:23:38;;;;;;;;;;;;;;;-1.57;83.93;101551.17;107646;1256;61251;-82
2023/02/03 02:26:36;;;;;;;;;;;;;;;-1.52;83.86;101544.05;107425;1254;124681;-82
2023/02/03 02:29:21;;;;;;;;;;;;;;;-1.49;83.96;101538.83;107432;1257;66822;-81
2023/02/03 02:31:48;;;;;;;;;;;;;;;-1.47;83.73;101532.45;107361;1256;125171;-81
2023/02/03 02:34:19;;;;;;;;;;;;;;;-1.45;83.72;101523.36;107441;1256;61276;-81
2023/02/03 02:37:06;;;;;;;;;;;;;;;-1.43;83.52;101522.95;107292;1259;125202;-82
2023/02/03 02:39:32;;;;;;;;;;;;;;;-1.40;83.80;101520.11;107475;1257;73076;-81
2023/02/03 02:42:13;;;;;;;;;;;;;;;-1.36;83.82;101516.84;107461;1257;125267;-81
2023/02/03 02:44:48;;;;;;;;;;;;;;;-1.34;83.72;101513.43;107505;1256;71178;-81
2023/02/03 02:47:14;;;;;;;;;;;;;;;-1.30;83.80;101508.71;107214;1255;61253;-82
2023/02/03 02:49:47;;;;;;;;;;;;;;;-1.26;83.66;101508.04;107521;1259;124800;-81
2023/02/03 02:52:13;;;;;;;;;;;;;;;-1.23;83.75;101505.08;108027;1254;74924;-83
2023/02/03 02:54:40;;;;;;;;;;;;;;;-1.23;83.83;101501.48;107806;1257;124678;-83
2023/02/03 02:57:08;;;;;;;;;;;;;;;-1.22;83.67;101502.72;107438;1256;72554;-83
2023/02/03 02:59:34;;;;;;;;;;;;;;;-1.22;83.46;101504.30;107329;1255;59793;-83
2023/02/03 03:02:33;;;;;;;;;;;;;;;-1.21;83.68;101496.94;107661;1256;125529;-84
2023/02/03 03:05:00;;;;;;;;;;;;;;;-1.20;83.69;101495.28;107884;1256;74935;-83
2023/02/03 03:07:26;;;;;;;;;;;;;;;-1.20;83.60;101492.56;107666;1257;125087;-83
2023/02/03 03:09:56;;;;;;;;;;;;;;;-1.17;83.62;101490.91;107256;1257;61368;-83
2023/02/03 03:12:23;;;;;;;;;;;;;;;-1.15;83.67;101486.23;107276;1256;125248;-83
2023/02/03 03:14:53;;;;;;;;;;;;;;;-1.13;83.66;101482.25;107384;1254;61434;-83
2023/02/03 03:17:26;;;;;;;;;;;;;;;-1.13;83.46;101470.73;107478;1254;75163;-83
2023/02/03 03:19:54;;;;;;;;;;;;;;;-1.12;83.60;101466.03;107176;1254;125719;-83
2023/02/03 03:22:21;;;;;;;;;;;;;;;-1.11;83.42;101461.92;107185;1257;72716;-83
2023/02/03 03:24:49;;;;;;;;;;;;;;;-1.12;83.54;101455.47;107181;1254;124943;-83
2023/02/03 03:27:23;;;;;;;;;;;;;;;-1.11;83.33;101450.90;107541;1256;60128;-83
2023/02/03 03:29:53;;;;;;;;;;;;;;;-1.12;83.44;101452.88;107325;1257;124286;-83
2023/02/03 03:32:20;;;;;;;;;;;;;;;-1.13;83.43;101449.52;107402;1256;66927;-83
2023/02/03 03:34:47;;;;;;;;;;;;;;;-1.14;83.40;101450.52;107597;1254;73187;-83
2023/02/03 03:37:16;;;;;;;;;;;;;;;-1.18;83.22;101450.90;107302;1259;124087;-83
2023/02/03 03:39:42;;;;;;;;;;;;;;;-1.23;83.11;101451.19;107737;1259;61418;-83
2023/02/03 03:42:27;;;;;;;;;;;;;;;-1.26;83.21;101450.02;107287;1254;124688;-83
2023/02/03 03:45:17;;;;;;;;;;;;;;;-1.30;83.14;101448.69;107899;1256;67131;-83
2023/02/03 03:47:51;;;;;;;;;;;;;;;-1.32;83.19;101455.89;107490;1257;124593;-83
2023/02/03 03:50:18;;;;;;;;;;;;;;;-1.35;83.27;101452.38;107508;1256;61236;-83
2023/02/03 03:52:44;;;;;;;;;;;;;;;-1.37;83.34;101448.06;108788;1254;59224;-83
2023/02/03 03:55:11;;;;;;;;;;;;;;;-1.39;83.42;101446.55;107722;1257;123886;-83
2023/02/03 03:57:42;;;;;;;;;;;;;;;-1.41;83.32;101447.73;107604;1256;66833;-83
2023/02/03 04:00:09;;;;;;;;;;;;;;;-1.43;83.31;101441.91;107620;1262;124710;-83
2023/02/03 04:02:35;;;;;;;;;;;;;;;-1.45;83.33;101440.38;107855;1257;59606;-83
2023/02/03 04:05:02;;;;;;;;;;;;;;;-1.47;83.28;101432.64;107771;1256;61295;-83
2023/02/03 04:07:37;;;;;;;;;;;;;;;-1.48;83.58;101427.73;107698;1256;124458;-83
2023/02/03 04:10:04;;;;;;;;;;;;;;;-1.47;83.40;101421.55;108015;1256;66781;-83
2023/02/03 04:12:31;;;;;;;;;;;;;;;-1.48;83.41;101412.54;107308;1255;123936;-83
2023/02/03 04:14:57;;;;;;;;;;;;;;;-1.49;83.46;101415.02;107823;1255;59275;-83
2023/02/03 04:17:23;;;;;;;;;;;;;;;-1.50;83.36;101413.27;107835;1257;59649;-83
2023/02/03 04:19:50;;;;;;;;;;;;;;;-1.49;83.42;101408.72;107635;1257;124650;-82
2023/02/03 04:22:16;;;;;;;;;;;;;;;-1.47;83.55;101406.06;107807;1257;59761;-82
2023/02/03 04:24:42;;;;;;;;;;;;;;;-1.44;83.74;101402.91;108027;1255;124836;-83
2023/02/03 04:27:12;;;;;;;;;;;;;;;-1.41;83.72;101393.20;107947;1257;61142;-83
2023/02/03 04:29:39;;;;;;;;;;;;;;;-1.37;83.77;101389.06;107677;1257;59540;-83
2023/02/03 04:32:05;;;;;;;;;;;;;;;-1.34;83.65;101384.56;107489;1254;124736;-83
2023/02/03 04:34:31;;;;;;;;;;;;;;;-1.31;83.83;101377.45;107733;1257;59538;-83
2023/02/03 04:36:57;;;;;;;;;;;;;;;-1.26;83.89;101372.20;107710;1256;125665;-82
2023/02/03 04:39:24;;;;;;;;;;;;;;;-1.22;83.80;101372.71;107366;1255;61307;-83
2023/02/03 04:41:50;;;;;;;;;;;;;;;-1.21;83.66;101371.08;107335;1257;125914;-83
2023/02/03 04:44:16;;;;;;;;;;;;;;;-1.21;83.58;101365.93;107373;1256;61269;-83
2023/02/03 04:46:43;;;;;;;;;;;;;;;-1.19;83.82;101361.27;107453;1254;61296;-83
2023/02/03 04:49:10;;;;;;;;;;;;;;;-1.16;83.70;101356.98;107381;1257;124809;-83
2023/02/03 04:51:36;;;;;;;;;;;;;;;-1.12;83.65;101357.11;107529;1257;61294;-81
2023/02/03 04:54:04;;;;;;;;;;;;;;;-1.10;83.73;101349.74;107569;1257;127306;-82
2023/02/03 04:56:30;;;;;;;;;;;;;;;-1.07;83.61;101342.44;107955;1261;74554;-82
2023/02/03 04:58:57;;;;;;;;;;;;;;;-1.05;83.69;101330.68;108032;1254;61390;-82
2023/02/03 05:01:24;;;;;;;;;;;;;;;-1.02;83.64;101322.35;107474;1255;125145;-82
2023/02/03 05:03:50;;;;;;;;;;;;;;;-0.97;83.67;101312.21;107369;1257;61167;-82
2023/02/03 05:06:16;;;;;;;;;;;;;;;-0.93;83.78;101307.70;107604;1254;125013;-82
2023/02/03 05:08:43;;;;;;;;;;;;;;;-0.90;83.75;101303.97;108099;1257;61029;-82
2023/02/03 05:11:10;;;;;;;;;;;;;;;-0.88;83.56;101296.36;108043;1255;59627;-82
2023/02/03 05:13:36;;;;;;;;;;;;;;;-0.88;83.55;101291.23;107967;1256;125273;-83
2023/02/03 05:16:03;;;;;;;;;;;;;;;-0.84;83.77;101285.11;107846;1259;61183;-83
2023/02/03 05:18:29;;;;;;;;;;;;;;;-0.83;83.75;101280.26;107502;1256;124685;-82
2023/02/03 05:20:55;;;;;;;;;;;;;;;-0.81;83.43;101279.02;107848;1257;59657;-83
2023/02/03 05:23:21;;;;;;;;;;;;;;;-0.81;83.54;101275.39;108101;1257;59984;-82
2023/02/03 05:25:48;;;;;;;;;;;;;;;-0.80;83.37;101270.67;107906;1259;125365;-81
2023/02/03 05:28:14;;;;;;;;;;;;;;;-0.78;83.53;101267.65;107676;1256;59561;-81
2023/02/03 05:30:41;;;;;;;;;;;;;;;-0.76;83.48;101266.09;107645;1254;124751;-80
2023/02/03 05:33:09;;;;;;;;;;;;;;;-0.76;83.41;101263.30;108576;1257;59215;-80
2023/02/03 05:35:35;;;;;;;;;;;;;;;-0.79;83.13;101265.90;109089;1254;67345;-81
2023/02/03 05:38:02;;;;;;;;;;;;;;;-0.81;83.24;101256.11;108972;1254;124529;-80
2023/02/03 05:43:13;;;;;;;;;;;;;;;-0.79;83.32;101240.77;107565;1255;124794;-81
2023/02/03 05:45:40;;;;;;;;;;;;;;;-0.80;83.23;101238.40;107161;1257;61209;-83
2023/02/03 05:48:06;;;;;;;;;;;;;;;-0.85;83.25;101237.73;108311;1259;125611;-81
2023/02/03 05:50:33;;;;;;;;;;;;;;;-0.88;83.13;101234.86;108755;1254;59424;-81
2023/02/03 05:53:00;;;;;;;;;;;;;;;-0.91;83.09;101226.86;107954;1256;60354;-80
2023/02/03 05:55:26;;;;;;;;;;;;;;;-0.92;83.23;101229.69;107841;1256;125371;-80
2023/02/03 05:57:53;;;;;;;;;;;;;;;-0.92;83.22;101227.42;107698;1262;75249;-81
2023/02/03 06:00:20;;;;;;;;;;;;;;;-0.94;83.22;101221.47;107553;1256;124778;-83
2023/02/03 06:02:53;;;;;;;;;;;;;;;-0.96;83.33;101220.98;108196;1257;71196;-81
2023/02/03 06:05:19;;;;;;;;;;;;;;;-0.97;83.30;101216.37;107201;1256;61365;-83
2023/02/03 06:07:46;;;;;;;;;;;;;;;-1.00;83.26;101210.17;107246;1258;124674;-84
2023/02/03 06:10:12;;;;;;;;;;;;;;;-1.02;83.32;101200.69;107552;1259;59586;-83
2023/02/03 06:12:38;;;;;;;;;;;;;;;-1.03;83.39;101193.25;108060;1259;124620;-83
2023/02/03 06:15:07;;;;;;;;;;;;;;;-1.03;83.33;101189.24;107994;1260;73437;-83
2023/02/03 06:17:35;;;;;;;;;;;;;;;-1.06;83.34;101185.40;107615;1257;61342;-83
2023/02/03 06:20:04;;;;;;;;;;;;;;;-1.05;83.63;101180.13;107431;1257;124789;-83
2023/02/03 06:22:30;;;;;;;;;;;;;;;-1.05;83.55;101169.85;107564;1257;73012;-82
2023/02/03 06:24:56;;;;;;;;;;;;;;;-1.04;83.74;101164.92;108631;1256;124003;-82
2023/02/03 06:27:23;;;;;;;;;;;;;;;-1.02;83.77;101160.04;108638;1259;60526;-83
2023/02/03 06:29:53;;;;;;;;;;;;;;;-1.01;83.76;101155.32;107260;1257;124215;-82
2023/02/03 06:32:19;;;;;;;;;;;;;;;-0.99;83.89;101149.59;107618;1255;61369;-82
2023/02/03 06:34:52;;;;;;;;;;;;;;;-0.95;83.97;101146.95;108008;1256;61190;-82
2023/02/03 06:37:23;;;;;;;;;;;;;;;-0.91;84.07;101143.27;108515;1257;124608;-82
2023/02/03 06:39:49;;;;;;;;;;;;;;;-0.89;84.03;101135.38;107522;1257;59718;-83
2023/02/03 06:42:15;;;;;;;;;;;;;;;-0.86;83.95;101130.41;107140;1257;124626;-82
2023/02/03 06:44:43;;;;;;;;;;;;;;;-0.84;83.96;101120.40;107410;1257;59532;-82
2023/02/03 06:47:14;;;;;;;;;;;;;;;-0.85;83.92;101117.60;107466;1257;74606;-82
2023/02/03 06:49:40;;;;;;;;;;;;;;;-0.84;83.98;101111.63;108983;1255;124408;-83
2023/02/03 06:52:06;;;;;;;;;;;;;;;-0.78;84.23;101101.20;109018;1257;59430;-83
2023/02/03 06:54:32;;;;;;;;;;;;;;;-0.70;84.24;101096.98;107347;1260;125194;-83
2023/02/03 06:56:58;;;;;;;;;;;;;;;-0.64;84.10;101091.59;107442;1254;61207;-83
2023/02/03 06:59:25;;;;;;;;;;;;;;;-0.58;84.10;101079.15;107599;1257;59838;-83
2023/02/03 07:01:51;;;;;;;;;;;;;;;-0.52;84.05;101070.41;107601;1257;124676;-82
2023/02/03 07:04:19;;;;;;;;;;;;;;;-0.48;84.06;101064.17;107470;1257;60303;-82
2023/02/03 07:06:45;;;;;;;;;;;;;;;-0.44;83.97;101057.08;107286;1261;125303;-82
2023/02/03 07:09:12;;;;;;;;;;;;;;;-0.41;83.79;101052.95;107871;1259;60199;-82
2023/02/03 07:11:38;;;;;;;;;;;;;;;-0.39;83.75;101046.89;107648;1256;61391;-82
2023/02/03 07:14:04;;;;;;;;;;;;;;;-0.35;83.81;101041.31;108242;1254;125025;-82
2023/02/03 07:16:33;;;;;;;;;;;;;;;-0.32;83.97;101032.22;108223;1259;59267;-82
2023/02/03 07:18:59;;;;;;;;;;;;;;;-0.27;83.76;101028.10;107424;1254;125533;-82
2023/02/03 07:21:25;;;;;;;;;;;;;;;-0.22;83.71;101027.14;107802;1254;61359;-82
2023/02/03 07:23:52;;;;;;;;;;;;;;;-0.16;83.71;101026.67;107755;1254;125474;-81
2023/02/03 07:26:21;;;;;;;;;;;;;;;-0.08;83.83;101024.64;108100;1261;66384;-80
2023/02/03 07:28:48;;;;;;;;;;;;;;;-0.02;83.86;101014.05;108494;1257;72783;-81
2023/02/03 07:31:14;;;;;;;;;;;;;;;0.06;83.81;101011.19;107659;1257;125583;-81
2023/02/03 07:33:41;;;;;;;;;;;;;;;0.14;83.65;101006.41;107864;1254;61045;-81
2023/02/03 07:36:07;;;;;;;;;;;;;;;0.21;83.57;101001.17;107303;1261;124779;-81
2023/02/03 07:38:33;;;;;;;;;;;;;;;0.24;83.47;100997.21;107433;1255;61214;-81
2023/02/03 07:41:00;;;;;;;;;;;;;;;0.28;83.51;100985.11;107762;1258;61469;-81
2023/02/03 07:43:26;;;;;;;;;;;;;;;0.32;83.53;100978.45;108439;1257;125129;-81
2023/02/03 07:45:52;;;;;;;;;;;;;;;0.33;83.25;100973.67;107529;1257;61388;-81
2023/02/03 07:48:19;;;;;;;;;;;;;;;0.38;83.39;100973.91;107456;1257;124829;-81
2023/02/03 07:50:46;;;;;;;;;;;;;;;0.45;83.50;100969.73;107638;1262;61320;-81
2023/02/03 07:53:13;;;;;;;;;;;;;;;0.52;83.36;100959.52;107771;1258;71397;-83
2023/02/03 07:55:39;;;;;;;;;;;;;;;0.60;83.28;100960.67;107565;1260;124807;-81
2023/02/03 07:58:05;;;;;;;;;;;;;;;0.68;83.34;100947.45;107541;1258;61962;-81
2023/02/03 08:00:32;;;;;;;;;;;;;;;0.77;83.43;100942.48;107971;1257;124971;-81
2023/02/03 08:02:58;;;;;;;;;;;;;;;0.84;83.39;100935.36;108203;1257;61311;-81
2023/02/03 08:05:25;;;;;;;;;;;;;;;0.88;82.99;100926.33;107790;1260;61359;-81
2023/02/03 08:07:53;;;;;;;;;;;;;;;0.94;83.16;100924.66;107563;1260;124717;-81
2023/02/03 08:10:19;;;;;;;;;;;;;;;1.00;83.09;100914.50;107797;1254;61141;-81
2023/02/03 08:12:46;;;;;;;;;;;;;;;1.08;83.03;100903.27;107445;1259;123841;-81
2023/02/03 08:15:13;;;;;;;;;;;;;;;1.14;82.95;100898.66;107522;1254;66881;-82
2023/02/03 08:17:40;;;;;;;;;;;;;;;1.21;82.86;100889.71;108691;1254;59603;-81
2023/02/03 08:20:07;;;;;;;;;;;;;;;1.24;82.72;100886.48;108911;1257;123594;-81
2023/02/03 08:22:33;;;;;;;;;;;;;;;1.29;82.58;100879.02;109066;1256;59288;-81
2023/02/03 08:25:00;;;;;;;;;;;;;;;1.31;82.52;100871.55;108835;1255;123867;-81
2023/02/03 08:27:26;;;;;;;;;;;;;;;1.32;82.49;100873.20;108697;1254;60673;-82
2023/02/03 08:29:52;;;;;;;;;;;;;;;1.33;82.41;100869.41;108855;1258;124002;-82
2023/02/03 08:32:20;;;;;;;;;;;;;;;1.35;82.28;100863.69;109029;1258;59570;-83
2023/02/03 08:34:46;;;;;;;;;;;;;;;1.40;82.32;100858.45;107550;1254;61373;-82
2023/02/03 08:37:13;;;;;;;;;;;;;;;1.46;82.51;100855.39;107394;1256;124779;-82
2023/02/03 08:39:39;;;;;;;;;;;;;;;1.51;82.13;100850.65;107737;1257;67481;-82
2023/02/03 08:42:06;;;;;;;;;;;;;;;1.50;82.11;100846.14;107987;1258;124538;-81
2023/02/03 08:44:32;;;;;;;;;;;;;;;1.50;81.91;100837.80;107839;1257;59483;-80
2023/02/03 08:46:58;;;;;;;;;;;;;;;1.51;82.09;100831.65;107529;1260;61288;-81
2023/02/03 08:49:25;;;;;;;;;;;;;;;1.55;82.03;100826.69;107349;1257;124622;-80
2023/02/03 08:51:51;;;;;;;;;;;;;;;1.57;81.85;100817.13;107382;1257;59429;-80
2023/02/03 08:54:18;;;;;;;;;;;;;;;1.59;82.04;100811.23;107437;1255;124912;-80
2023/02/03 08:56:44;;;;;;;;;;;;;;;1.62;82.01;100807.41;107789;1259;61132;-80
2023/02/03 08:59:11;;;;;;;;;;;;;;;1.61;81.87;100799.75;107436;1263;59610;-81
2023/02/03 09:01:39;;;;;;;;;;;;;;;1.66;81.88;100792.28;107444;1257;125111;-81
2023/02/03 09:04:07;;;;;;;;;;;;;;;1.68;81.68;100784.46;107788;1258;65820;-80
2023/02/03 09:06:34;;;;;;;;;;;;;;;1.70;81.81;100775.44;107441;1256;125590;-81
2023/02/03 09:09:00;;;;;;;;;;;;;;;1.74;81.67;100768.40;107380;1261;61314;-81
2023/02/03 09:11:26;;;;;;;;;;;;;;;1.79;81.81;100762.23;109071;1258;59146;-81
2023/02/03 09:13:53;;;;;;;;;;;;;;;1.82;81.69;100754.48;108443;1254;124885;-81
2023/02/03 09:16:22;;;;;;;;;;;;;;;1.85;81.51;100742.71;108956;1254;59374;-81
2023/02/03 09:18:48;;;;;;;;;;;;;;;1.85;81.43;100743.09;108696;1257;124404;-81
2023/02/03 09:21:15;;;;;;;;;;;;;;;1.88;81.40;100735.82;107527;1254;61143;-81
2023/02/03 09:23:43;;;;;;;;;;;;;;;1.92;81.31;100735.02;107648;1260;59344;-81
2023/02/03 09:26:10;;;;;;;;;;;;;;;1.97;81.52;100728.05;107275;1260;124990;-84
2023/02/03 09:28:36;;;;;;;;;;;;;;;2.01;81.43;100723.59;107442;1257;67155;-83
2023/02/03 09:31:04;;;;;;;;;;;;;;;2.05;81.37;100714.33;107624;1255;125521;-84
2023/02/03 09:33:30;;;;;;;;;;;;;;;2.10;81.39;100708.23;108865;1256;59156;-83
2023/02/03 09:35:56;;;;;;;;;;;;;;;2.18;81.33;100695.14;107679;1259;124778;-83
2023/02/03 09:38:23;;;;;;;;;;;;;;;2.21;81.11;100687.20;107647;1257;61285;-82
2023/02/03 09:41:00;;;;;;;;;;;;;;;2.23;81.04;100682.29;107537;1260;59649;-82
2023/02/03 09:43:31;;;;;;;;;;;;;;;2.27;81.05;100673.01;107459;1257;124093;-82
2023/02/03 09:46:02;;;;;;;;;;;;;;;2.27;80.85;100663.80;107599;1254;61288;-81
2023/02/03 09:48:30;;;;;;;;;;;;;;;2.22;80.65;100659.90;107346;1259;189095;-80
2023/02/03 09:50:57;;;;;;;;;;;;;;;2.23;80.71;100648.85;107493;1256;74595;-82
2023/02/03 09:53:30;;;;;;;;;;;;;;;2.26;80.77;100635.70;107681;1256;65485;-81
2023/02/03 09:55:56;;;;;;;;;;;;;;;2.24;80.61;100626.73;107435;1257;124326;-81
2023/02/03 09:58:23;;;;;;;;;;;;;;;2.12;80.43;100620.24;107630;1258;61133;-80
2023/02/03 10:00:50;;;;;;;;;;;;;;;2.09;80.49;100612.11;107211;1260;124860;-82
2023/02/03 10:03:28;;;;;;;;;;;;;;;2.03;80.43;100602.05;108091;1257;75717;-82
2023/02/03 10:05:54;;;;;;;;;;;;;;;1.97;80.50;100592.02;108765;1254;125043;-79
2023/02/03 10:08:26;;;;;;;;;;;;;;;1.93;80.60;100587.82;108291;1254;59818;-80
2023/02/03 10:11:08;;;;;;;;;;;;;;;1.92;80.82;100587.59;107733;1254;61152;-82
2023/02/03 10:13:38;;;;;;;;;;;;;;;1.91;80.94;100579.73;107573;1254;124600;-82
2023/02/03 10:16:12;;;;;;;;;;;;;;;1.91;81.04;100576.64;107568;1254;74976;-82
2023/02/03 10:18:39;;;;;;;;;;;;;;;1.87;80.91;100567.59;108205;1260;125237;-81
2023/02/03 10:21:32;;;;;;;;;;;;;;;1.85;80.95;100559.34;108504;1260;71347;-82
2023/02/03 10:23:58;;;;;;;;;;;;;;;1.83;81.18;100544.13;107926;1254;124719;-83
2023/02/03 10:26:27;;;;;;;;;;;;;;;1.77;80.99;100539.34;108420;1259;61160;-82
2023/02/03 10:28:55;;;;;;;;;;;;;;;1.68;81.10;100525.85;109025;1255;74464;-83
2023/02/03 10:31:22;;;;;;;;;;;;;;;1.65;81.14;100522.71;108819;1260;123733;-82
2023/02/03 10:33:51;;;;;;;;;;;;;;;1.60;81.20;100514.46;108805;1254;71324;-83
2023/02/03 10:36:21;;;;;;;;;;;;;;;1.51;81.14;100500.11;108794;1254;124127;-81
2023/02/03 10:38:51;;;;;;;;;;;;;;;1.40;81.28;100492.57;108914;1254;60165;-81
2023/02/03 10:41:18;;;;;;;;;;;;;;;1.32;81.47;100489.54;108327;1254;74465;-81
2023/02/03 10:43:48;;;;;;;;;;;;;;;1.24;81.47;100481.81;107174;1257;125537;-81
2023/02/03 10:46:15;;;;;;;;;;;;;;;1.17;81.76;100471.04;107352;1254;72649;-82
2023/02/03 10:48:42;;;;;;;;;;;;;;;1.14;82.20;100462.93;107517;1257;124484;-81
2023/02/03 10:51:22;;;;;;;;;;;;;;;1.13;82.16;100451.27;107736;1254;61155;-81
2023/02/03 10:53:52;;;;;;;;;;;;;;;1.08;82.52;100440.46;107689;1254;124634;-81
2023/02/03 10:56:21;;;;;;;;;;;;;;;1.02;82.41;100432.35;108400;1257;67175;-82
2023/02/03 10:58:52;;;;;;;;;;;;;;;0.97;82.45;100421.34;108870;1260;70339;-82
2023/02/03 11:01:19;;;;;;;;;;;;;;;0.95;82.81;100409.85;108738;1254;124910;-83
2023/02/03 11:03:56;;;;;;;;;;;;;;;0.94;82.64;100402.32;107614;1257;59801;-83
2023/02/03 11:06:23;;;;;;;;;;;;;;;0.93;82.81;100392.08;107293;1254;125142;-83
2023/02/03 11:08:49;;;;;;;;;;;;;;;0.94;83.37;100376.94;107395;1261;59863;-82
2023/02/03 11:11:20;;;;;;;;;;;;;;;0.93;83.47;100366.52;107301;1255;61429;-83
2023/02/03 11:13:48;;;;;;;;;;;;;;;0.91;83.59;100359.00;107235;1254;124969;-82
2023/02/03 11:16:15;;;;;;;;;;;;;;;0.91;83.63;100351.38;107771;1257;59989;-83
2023/02/03 11:18:45;;;;;;;;;;;;;;;0.93;83.69;100338.91;107782;1260;124708;-82
2023/02/03 11:21:15;;;;;;;;;;;;;;;0.98;83.86;100330.35;108015;1258;66875;-83
2023/02/03 11:23:49;;;;;;;;;;;;;;;0.99;83.79;100317.09;107897;1254;73057;-82
2023/02/03 11:26:17;;;;;;;;;;;;;;;0.95;83.65;100312.23;108137;1256;59481;-82
2023/02/03 11:28:43;;;;;;;;;;;;;;;0.93;83.86;100305.73;108891;1254;59939;-83
2023/02/03 11:31:17;;;;;;;;;;;;;;;0.87;84.07;100299.17;107470;1257;124675;-82
2023/02/03 11:33:49;;;;;;;;;;;;;;;0.81;84.44;100291.89;107533;1259;66983;-82
2023/02/03 11:36:25;;;;;;;;;;;;;;;0.76;84.51;100281.09;107578;1254;124711;-83
2023/02/03 11:38:52;;;;;;;;;;;;;;;0.75;84.56;100276.57;107455;1257;61133;-83
2023/02/03 11:41:30;;;;;;;;;;;;;;;0.75;84.60;100268.94;107414;1254;59382;-82
2023/02/03 11:43:58;;;;;;;;;;;;;;;0.75;84.50;100261.16;107312;1257;124690;-82
2023/02/03 11:46:24;;;;;;;;;;;;;;;0.69;84.45;100260.16;107586;1254;66366;-82
2023/02/03 11:49:08;;;;;;;;;;;;;;;0.57;84.82;100257.90;107927;1254;124507;-82
2023/02/03 11:51:44;;;;;;;;;;;;;;;0.45;85.47;100253.79;107849;1254;61198;-82
2023/02/03 11:54:17;;;;;;;;;;;;;;;0.37;85.52;100253.83;107714;1257;125166;-82
2023/02/03 11:56:50;;;;;;;;;;;;;;;0.34;85.53;100248.34;107604;1254;74700;-83
2023/02/03 11:59:17;;;;;;;;;;;;;;;0.35;85.53;100240.42;107871;1254;67167;-83
2023/02/03 12:01:57;;;;;;;;;;;;;;;0.35;85.59;100237.17;107677;1258;124937;-83
2023/02/03 12:04:28;;;;;;;;;;;;;;;0.36;85.69;100229.95;107813;1257;61224;-83
2023/02/03 12:07:15;;;;;;;;;;;;;;;0.38;85.91;100226.45;107591;1257;124950;-83
2023/02/03 12:10:02;;;;;;;;;;;;;;;0.38;85.73;100217.84;107774;1255;73226;-83
2023/02/03 12:12:29;;;;;;;;;;;;;;;0.38;85.85;100217.11;107648;1258;124723;-83
2023/02/03 12:14:57;;;;;;;;;;;;;;;0.37;85.94;100215.00;107726;1254;72499;-83
2023/02/03 12:17:50;;;;;;;;;;;;;;;0.36;85.88;100211.99;107871;1257;62634;-84
2023/02/03 12:20:29;;;;;;;;;;;;;;;0.35;85.96;100205.39;107812;1257;61150;-84
2023/02/03 12:23:22;;;;;;;;;;;;;;;0.34;86.02;100204.63;107491;1257;74672;-84
2023/02/03 12:26:01;;;;;;;;;;;;;;;0.32;86.19;100205.22;107588;1255;124824;-84
2023/02/03 12:28:32;;;;;;;;;;;;;;;0.33;86.21;100204.27;108707;1254;73054;-82
2023/02/03 12:31:13;;;;;;;;;;;;;;;0.34;86.25;100202.91;107933;1256;125127;-81
2023/02/03 12:33:45;;;;;;;;;;;;;;;0.37;86.50;100207.05;108507;1260;60743;-81
2023/02/03 12:36:26;;;;;;;;;;;;;;;0.38;86.47;100207.29;107585;1258;125050;-81
2023/02/03 12:38:58;;;;;;;;;;;;;;;0.43;86.80;100204.63;107366;1257;65584;-83
2023/02/03 12:41:29;;;;;;;;;;;;;;;0.44;86.54;100204.02;107689;1254;71399;-83